createdAt,value
2019-04-21T00:02:32.024Z,22.90
2019-04-21T00:05:05.721Z,22.37
2019-04-21T00:07:46.449Z,22.67
2019-04-21T00:10:12.100Z,22.30
2019-04-21T00:12:44.789Z,23.53
2019-04-21T00:15:07.399Z,20.63
2019-04-21T00:17:28.395Z,23.57
2019-04-21T00:20:09.187Z,21.70
2019-04-21T00:22:42.113Z,24.23
2019-04-21T00:25:14.946Z,24.03
2019-04-21T00:27:46.463Z,24.17
2019-04-21T00:30:21.666Z,22.87
2019-04-21T00:32:47.991Z,24.10
2019-04-21T00:35:08.532Z,24.10
2019-04-21T00:37:53.404Z,21.40
2019-04-21T00:40:24.004Z,23.20
2019-04-21T00:42:48.425Z,25.67
2019-04-21T00:45:18.241Z,22.97
2019-04-21T00:47:58.775Z,23.27
2019-04-21T00:50:34.550Z,25.43
2019-04-21T00:53:14.909Z,23.53
2019-04-21T00:55:51.994Z,23.30
2019-04-21T00:58:23.956Z,25.43
2019-04-21T01:00:51.301Z,23.57
2019-04-21T01:03:24.694Z,25.13
2019-04-21T01:05:54.569Z,24.37
2019-04-21T01:08:21.794Z,26.20
2019-04-21T01:10:43.590Z,24.77
2019-04-21T01:13:27.282Z,26.30
2019-04-21T01:15:53.042Z,26.53
2019-04-21T01:18:20.745Z,26.00
2019-04-21T01:20:31.909Z,26.47
2019-04-21T01:23:00.586Z,27.57
2019-04-21T01:25:37.290Z,27.73
2019-04-21T01:28:21.388Z,28.67
2019-04-21T01:30:53.444Z,28.90
2019-04-21T01:33:27.112Z,28.00
2019-04-21T01:35:53.677Z,25.67
2019-04-21T01:38:32.326Z,27.00
2019-04-21T01:41:02.466Z,27.73
2019-04-21T01:43:23.523Z,27.07
2019-04-21T01:45:54.929Z,28.40
2019-04-21T01:48:24.426Z,27.67
2019-04-21T01:50:55.494Z,25.30
2019-04-21T01:53:36.423Z,25.63
2019-04-21T01:56:30.591Z,27.07
2019-04-21T01:58:50.867Z,25.60
2019-04-21T02:01:33.642Z,26.63
2019-04-21T02:04:02.749Z,29.33
2019-04-21T02:06:45.638Z,28.60
2019-04-21T02:08:57.747Z,27.13
2019-04-21T02:11:37.294Z,28.10
2019-04-21T02:14:12.894Z,27.77
2019-04-21T02:16:34.538Z,29.30
2019-04-21T02:18:58.846Z,27.73
2019-04-21T02:21:31.701Z,27.50
2019-04-21T02:24:15.176Z,28.90
2019-04-21T02:26:52.937Z,29.17
2019-04-21T02:29:15.588Z,29.97
2019-04-21T02:31:56.961Z,29.27
2019-04-21T02:34:13.126Z,30.90
2019-04-21T02:37:14.384Z,28.00
2019-04-21T02:39:21.011Z,30.87
2019-04-21T02:41:54.398Z,28.77
2019-04-21T02:44:30.132Z,28.73
2019-04-21T02:46:46.304Z,28.27
2019-04-21T02:49:39.890Z,29.67
2019-04-21T02:54:48.026Z,30.97
2019-04-21T02:57:03.296Z,30.37
2019-04-21T02:59:42.437Z,28.07
2019-04-21T03:02:17.077Z,31.43
2019-04-21T03:05:11.226Z,30.97
2019-04-21T03:07:32.436Z,31.83
2019-04-21T03:10:11.557Z,32.00
2019-04-21T03:12:50.924Z,29.37
2019-04-21T03:15:16.115Z,30.33
2019-04-21T03:17:43.223Z,33.10
2019-04-21T03:20:07.158Z,30.30
2019-04-21T03:23:03.621Z,33.53
2019-04-21T03:30:29.406Z,32.43
2019-04-21T03:33:26.075Z,34.00
2019-04-21T03:35:43.963Z,34.17
2019-04-21T03:37:38.700Z,33.00
2019-04-21T03:42:47.481Z,33.50
2019-04-21T03:45:25.006Z,33.50
2019-04-21T03:50:11.383Z,35.03
2019-04-21T03:52:53.308Z,33.33
2019-04-21T03:58:04.649Z,34.77
2019-04-21T04:00:45.069Z,32.07
2019-04-21T04:03:32.380Z,34.90
2019-04-21T04:11:26.089Z,36.63
2019-04-21T04:16:10.146Z,37.13
2019-04-21T04:21:24.745Z,37.07
2019-04-21T04:23:49.331Z,40.30
2019-04-21T04:31:28.787Z,41.37
2019-04-21T04:33:48.527Z,37.10
2019-04-21T04:36:30.339Z,38.97
2019-04-21T04:44:03.119Z,43.27
2019-04-21T04:46:34.963Z,38.83
2019-04-21T04:49:11.020Z,40.07
2019-04-21T04:51:47.455Z,42.93
2019-04-21T04:54:28.455Z,38.07
2019-04-21T04:56:28.870Z,43.80
2019-04-21T05:06:42.544Z,44.10
2019-04-21T05:09:09.504Z,43.17
2019-04-21T05:14:07.612Z,42.07
2019-04-21T05:19:10.027Z,41.63
2019-04-21T05:23:55.928Z,46.43
2019-04-21T05:26:22.007Z,45.20
2019-04-21T05:28:50.888Z,44.13
2019-04-21T05:31:45.036Z,46.13
2019-04-21T05:34:18.577Z,48.57
2019-04-21T05:37:01.028Z,49.00
2019-04-21T05:39:43.539Z,48.60
2019-04-21T05:42:07.825Z,49.67
2019-04-21T05:50:09.861Z,52.97
2019-04-21T05:52:47.638Z,55.57
2019-04-21T05:55:31.740Z,54.07
2019-04-21T05:57:54.362Z,53.30
2019-04-21T06:00:48.142Z,54.73
2019-04-21T06:02:57.688Z,52.77
2019-04-21T06:05:54.038Z,56.30
2019-04-21T06:08:05.458Z,55.43
2019-04-21T06:10:34.706Z,58.03
2019-04-21T06:13:10.002Z,57.03
2019-04-21T06:15:41.485Z,57.37
2019-04-21T06:18:05.004Z,57.67
2019-04-21T06:20:35.413Z,60.70
2019-04-21T06:23:07.833Z,58.87
2019-04-21T06:28:10.863Z,61.40
2019-04-21T06:30:47.006Z,60.23
2019-04-21T06:33:04.906Z,62.23
2019-04-21T06:39:05.142Z,63.93
2019-04-21T06:41:31.156Z,62.57
2019-04-21T06:44:01.426Z,63.80
2019-04-21T06:51:32.370Z,60.20
2019-04-21T06:54:03.394Z,63.47
2019-04-21T06:56:37.728Z,61.87
2019-04-21T06:59:01.442Z,62.20
2019-04-21T07:01:38.986Z,62.67
2019-04-21T07:04:11.790Z,62.20
2019-04-21T07:06:35.635Z,62.33
2019-04-21T07:11:33.664Z,60.40
2019-04-21T07:14:22.612Z,63.20
2019-04-21T07:16:38.868Z,61.17
2019-04-21T07:19:13.100Z,60.73
2019-04-21T07:21:35.641Z,59.67
2019-04-21T07:24:05.196Z,62.03
2019-04-21T07:26:36.815Z,61.23
2019-04-21T07:29:08.096Z,61.30
2019-04-21T07:31:45.046Z,61.13
2019-04-21T07:36:45.044Z,57.90
2019-04-21T07:39:05.944Z,57.53
2019-04-21T07:41:35.058Z,58.03
2019-04-21T07:44:00.350Z,56.23
2019-04-21T07:46:28.987Z,54.83
2019-04-21T07:49:12.845Z,55.90
2019-04-21T07:51:53.437Z,54.73
2019-04-21T07:54:39.344Z,56.70
2019-04-21T07:56:39.444Z,56.30
2019-04-21T07:59:31.590Z,53.20
2019-04-21T08:01:56.385Z,54.73
2019-04-21T08:04:42.369Z,52.63
2019-04-21T08:06:56.705Z,54.13
2019-04-21T08:09:25.530Z,53.23
2019-04-21T08:11:51.786Z,52.33
2019-04-21T08:14:33.392Z,53.47
2019-04-21T08:17:04.881Z,51.83
2019-04-21T08:19:32.445Z,51.60
2019-04-21T08:22:05.475Z,49.73
2019-04-21T08:24:35.053Z,50.03
2019-04-21T08:27:06.283Z,50.83
2019-04-21T08:34:51.183Z,49.17
2019-04-21T08:37:12.265Z,53.37
2019-04-21T08:39:49.409Z,49.73
2019-04-21T08:42:10.434Z,49.85
2019-04-21T08:44:47.862Z,49.10
2019-04-21T08:47:12.371Z,51.63
2019-04-21T08:49:41.303Z,58.67
2019-04-21T08:52:21.687Z,56.15
2019-04-21T08:54:53.649Z,59.08
2019-04-21T08:57:35.722Z,57.50
2019-04-21T09:00:26.293Z,60.25
2019-04-21T09:03:02.428Z,58.17
2019-04-21T09:05:29.792Z,55.95
2019-04-21T09:08:03.836Z,57.90
2019-04-21T09:10:35.430Z,58.33
2019-04-21T09:13:04.981Z,57.10
2019-04-21T09:15:35.069Z,52.70
2019-04-21T09:18:08.851Z,54.00
2019-04-21T09:20:52.413Z,53.45
2019-04-21T09:23:13.304Z,48.35
2019-04-21T09:25:53.024Z,50.75
2019-04-21T09:28:26.974Z,49.95
2019-04-21T09:30:48.894Z,47.95
2019-04-21T09:33:11.679Z,46.65
2019-04-21T09:35:49.198Z,44.95
2019-04-21T09:38:19.668Z,40.05
2019-04-21T09:40:45.864Z,41.35
2019-04-21T09:43:18.716Z,41.37
2019-04-21T09:45:43.109Z,37.63
2019-04-21T09:48:17.078Z,37.83
2019-04-21T09:50:43.373Z,34.88
2019-04-21T09:53:22.194Z,35.48
2019-04-21T09:55:50.149Z,35.10
2019-04-21T09:58:24.177Z,34.43
2019-04-21T10:00:53.816Z,34.58
2019-04-21T10:03:17.300Z,35.90
2019-04-21T10:05:45.251Z,34.83
2019-04-21T10:08:14.574Z,35.43
2019-04-21T10:10:44.456Z,33.98
2019-04-21T10:13:13.483Z,34.45
2019-04-21T10:15:44.170Z,35.28
2019-04-21T10:18:17.420Z,34.43
2019-04-21T10:20:46.910Z,31.60
2019-04-21T10:23:15.945Z,32.55
2019-04-21T10:25:46.241Z,30.62
2019-04-21T10:28:15.369Z,29.12
2019-04-21T10:30:44.788Z,29.87
2019-04-21T10:33:14.426Z,30.88
2019-04-21T10:35:43.395Z,36.17
2019-04-21T10:38:22.721Z,27.77
2019-04-21T10:40:43.474Z,30.37
2019-04-21T10:43:13.883Z,30.17
2019-04-21T10:45:45.047Z,28.15
2019-04-21T10:48:14.668Z,30.75
2019-04-21T10:50:43.678Z,30.90
2019-04-21T10:53:34.471Z,31.60
2019-04-21T10:56:17.572Z,29.12
2019-04-21T10:58:46.402Z,31.20
2019-04-21T11:01:21.059Z,31.10
2019-04-21T11:03:55.084Z,30.80
2019-04-21T11:06:24.491Z,30.45
2019-04-21T11:08:55.636Z,30.55
2019-04-21T11:11:24.241Z,29.37
2019-04-21T11:13:52.982Z,30.52
2019-04-21T11:16:21.812Z,31.48
2019-04-21T11:18:51.637Z,28.45
2019-04-21T11:21:20.905Z,31.55
2019-04-21T11:23:50.142Z,30.35
2019-04-21T11:26:19.992Z,26.93
2019-04-21T11:28:50.441Z,27.98
2019-04-21T11:31:20.913Z,26.25
2019-04-21T11:33:51.177Z,23.52
2019-04-21T11:36:24.874Z,29.35
2019-04-21T11:39:23.605Z,27.27
2019-04-21T11:41:43.607Z,24.87
2019-04-21T11:44:14.087Z,25.35
2019-04-21T11:46:44.423Z,29.42
2019-04-21T11:49:13.573Z,28.12
2019-04-21T11:51:44.988Z,25.92
2019-04-21T11:54:15.081Z,27.17
2019-04-21T11:56:48.450Z,28.70
2019-04-21T11:59:17.648Z,29.95
2019-04-21T12:01:48.069Z,32.15
2019-04-21T12:04:17.955Z,32.63
2019-04-21T12:06:49.065Z,31.75
2019-04-21T12:09:18.841Z,33.00
2019-04-21T12:11:49.370Z,31.90
2019-04-21T12:14:21.672Z,27.98
2019-04-21T12:16:51.025Z,31.20
2019-04-21T12:19:20.774Z,33.05
2019-04-21T12:22:02.855Z,31.30
2019-04-21T12:24:21.510Z,33.88
2019-04-21T12:26:53.823Z,31.68
2019-04-21T12:29:22.940Z,32.17
2019-04-21T12:32:12.755Z,34.88
2019-04-21T12:34:41.784Z,35.35
2019-04-21T12:37:13.026Z,31.10
2019-04-21T12:39:43.074Z,33.18
2019-04-21T12:42:14.895Z,33.38
2019-04-21T12:44:47.546Z,31.48
2019-04-21T12:47:24.263Z,34.05
2019-04-21T12:49:54.058Z,33.40
2019-04-21T12:52:24.010Z,34.78
2019-04-21T12:54:53.542Z,35.60
2019-04-21T12:57:23.438Z,35.00
2019-04-21T12:59:55.084Z,35.17
2019-04-21T13:02:28.018Z,30.40
2019-04-21T13:04:59.678Z,30.90
2019-04-21T13:07:29.078Z,32.90
2019-04-21T13:10:00.121Z,34.58
2019-04-21T13:12:33.250Z,36.70
2019-04-21T13:15:04.107Z,33.85
2019-04-21T13:17:33.787Z,35.00
2019-04-21T13:20:03.461Z,29.67
2019-04-21T13:22:32.595Z,29.55
2019-04-21T13:25:02.379Z,33.15
2019-04-21T13:27:34.482Z,35.20
2019-04-21T13:30:04.297Z,32.20
2019-04-21T13:32:35.174Z,29.27
2019-04-21T13:35:05.377Z,27.93
2019-04-21T13:37:35.578Z,30.50
2019-04-21T13:40:54.447Z,29.25
2019-04-21T13:43:08.712Z,32.20
2019-04-21T13:45:39.487Z,31.17
2019-04-21T13:48:08.806Z,30.12
2019-04-21T13:50:39.360Z,25.88
2019-04-21T13:53:09.058Z,28.02
2019-04-21T13:55:40.753Z,27.93
2019-04-21T13:58:10.423Z,29.40
2019-04-21T14:00:40.001Z,29.67
2019-04-21T14:03:10.410Z,26.95
2019-04-21T14:05:40.289Z,30.27
2019-04-21T14:08:09.404Z,27.05
2019-04-21T14:10:39.694Z,27.02
2019-04-21T14:13:09.955Z,28.65
2019-04-21T14:15:39.970Z,28.85
2019-04-21T14:18:09.102Z,28.15
2019-04-21T14:20:39.455Z,27.82
2019-04-21T14:23:20.505Z,27.00
2019-04-21T14:25:39.628Z,25.27
2019-04-21T14:28:08.508Z,25.72
2019-04-21T14:30:38.588Z,29.05
2019-04-21T14:33:08.030Z,25.23
2019-04-21T14:35:36.861Z,25.10
2019-04-21T14:38:06.971Z,22.75
2019-04-21T14:40:38.489Z,24.80
2019-04-21T14:43:07.928Z,25.10
2019-04-21T14:45:52.797Z,24.00
2019-04-21T14:48:39.445Z,25.08
2019-04-21T14:51:34.921Z,26.62
2019-04-21T14:54:20.980Z,25.95
2019-04-21T14:56:51.032Z,25.80
2019-04-21T14:59:21.385Z,22.35
2019-04-21T15:01:51.791Z,21.30
2019-04-21T15:04:22.280Z,21.20
2019-04-21T15:06:51.734Z,21.35
2019-04-21T15:09:21.041Z,22.20
2019-04-21T15:11:51.913Z,23.67
2019-04-21T15:14:22.217Z,29.05
2019-04-21T15:16:51.289Z,25.62
2019-04-21T15:19:20.493Z,24.27
2019-04-21T15:21:50.276Z,27.22
2019-04-21T15:24:20.456Z,24.25
2019-04-21T15:26:52.518Z,25.40
2019-04-21T15:29:20.425Z,22.75
2019-04-21T15:31:50.578Z,23.57
2019-04-21T15:34:22.069Z,24.15
2019-04-21T15:36:52.293Z,24.52
2019-04-21T15:39:21.568Z,23.40
2019-04-21T15:41:50.669Z,22.82
2019-04-21T15:44:20.822Z,25.37
2019-04-21T15:46:50.087Z,23.07
2019-04-21T15:49:19.071Z,25.80
2019-04-21T15:51:47.859Z,24.47
2019-04-21T15:54:16.713Z,27.02
2019-04-21T15:56:51.287Z,23.52
2019-04-21T15:59:46.436Z,22.55
2019-04-21T16:02:34.725Z,25.75
2019-04-21T16:05:04.714Z,26.48
2019-04-21T16:07:34.028Z,25.90
2019-04-21T16:10:06.551Z,21.10
2019-04-21T16:12:33.948Z,23.55
2019-04-21T16:15:03.148Z,25.60
2019-04-21T16:17:32.971Z,24.15
2019-04-21T16:20:02.123Z,35.28
2019-04-21T16:22:32.574Z,35.63
2019-04-21T16:25:03.210Z,23.10
2019-04-21T16:27:33.194Z,23.35
2019-04-21T16:30:03.806Z,26.05
2019-04-21T16:32:34.266Z,26.80
2019-04-21T16:35:08.326Z,23.07
2019-04-21T16:37:35.339Z,21.45
2019-04-21T16:40:05.356Z,22.48
2019-04-21T16:42:34.198Z,24.27
2019-04-21T16:45:03.252Z,20.00
2019-04-21T16:47:32.488Z,21.48
2019-04-21T16:50:01.721Z,21.73
2019-04-21T16:52:38.351Z,21.80
2019-04-21T16:55:23.225Z,21.37
2019-04-21T16:58:04.565Z,25.30
2019-04-21T17:00:38.769Z,20.62
2019-04-21T17:02:58.788Z,21.50
2019-04-21T17:05:27.946Z,20.37
2019-04-21T17:07:57.773Z,17.95
2019-04-21T17:10:26.795Z,20.02
2019-04-21T17:12:56.081Z,20.20
2019-04-21T17:15:42.073Z,19.37
2019-04-21T17:18:13.105Z,22.65
2019-04-21T17:20:38.173Z,19.67
2019-04-21T17:22:57.630Z,21.07
2019-04-21T17:25:27.893Z,21.00
2019-04-21T17:27:57.053Z,20.37
2019-04-21T17:30:26.422Z,19.52
2019-04-21T17:32:55.505Z,18.55
2019-04-21T17:35:26.886Z,22.22
2019-04-21T17:37:56.310Z,19.82
2019-04-21T17:40:26.349Z,18.32
2019-04-21T17:43:02.072Z,25.00
2019-04-21T17:45:27.009Z,18.92
2019-04-21T17:48:02.397Z,21.42
2019-04-21T17:50:49.568Z,20.05
2019-04-21T17:53:30.453Z,22.73
2019-04-21T17:56:16.408Z,24.57
2019-04-21T17:58:43.359Z,23.12
2019-04-21T18:01:20.858Z,23.55
2019-04-21T18:03:56.328Z,27.42
2019-04-21T18:06:07.542Z,24.00
2019-04-21T18:08:47.947Z,22.05
2019-04-21T18:11:06.227Z,29.65
2019-04-21T18:13:28.625Z,24.25
2019-04-21T18:16:12.384Z,27.10
2019-04-21T18:18:28.744Z,21.35
2019-04-21T18:21:02.902Z,21.27
2019-04-21T18:23:52.930Z,26.80
2019-04-21T18:26:25.265Z,24.10
2019-04-21T18:28:46.552Z,43.55
2019-04-21T18:31:16.599Z,51.80
2019-04-21T18:34:04.400Z,203.90
2019-04-21T18:36:49.856Z,223.65
2019-04-21T18:39:45.405Z,279.55
2019-04-21T18:42:26.313Z,34.88
2019-04-21T18:45:37.230Z,23.30
2019-04-21T18:47:59.588Z,19.37
2019-04-21T18:50:42.057Z,18.35
2019-04-21T18:53:23.791Z,20.05
2019-04-21T18:55:46.626Z,17.50
2019-04-21T18:58:13.718Z,17.60
2019-04-21T19:00:44.205Z,19.62
2019-04-21T19:03:14.039Z,15.83
2019-04-21T19:05:47.896Z,21.60
2019-04-21T19:08:26.384Z,18.85
2019-04-21T19:11:02.707Z,18.05
2019-04-21T19:16:22.583Z,19.30
2019-04-21T19:18:42.910Z,15.15
2019-04-21T19:21:03.659Z,15.45
2019-04-21T19:23:46.289Z,16.48
2019-04-21T19:26:18.761Z,18.92
2019-04-21T19:28:41.800Z,17.90
2019-04-21T19:31:12.688Z,17.32
2019-04-21T19:33:30.061Z,15.40
2019-04-21T19:35:47.904Z,17.65
2019-04-21T19:38:29.131Z,21.48
2019-04-21T19:41:03.992Z,18.55
2019-04-21T19:43:41.426Z,16.25
2019-04-21T19:46:04.576Z,18.30
2019-04-21T19:48:44.446Z,18.82
2019-04-21T19:51:05.667Z,18.90
2019-04-21T19:53:32.224Z,15.95
2019-04-21T19:55:50.509Z,14.95
2019-04-21T19:58:26.310Z,14.95
2019-04-21T20:00:52.269Z,14.55
2019-04-21T20:03:20.948Z,17.40
2019-04-21T20:05:59.492Z,16.57
2019-04-21T20:08:36.636Z,14.65
2019-04-21T20:11:10.151Z,17.45
2019-04-21T20:13:56.923Z,15.85
2019-04-21T20:16:15.142Z,15.50
2019-04-21T20:18:30.051Z,15.35
2019-04-21T20:20:52.298Z,15.45
2019-04-21T20:23:27.712Z,16.48
2019-04-21T20:25:55.916Z,16.25
2019-04-21T20:28:36.932Z,20.30
2019-04-21T20:31:13.224Z,16.60
2019-04-21T20:36:20.114Z,17.57
2019-04-21T20:38:31.296Z,19.25
2019-04-21T20:41:03.479Z,17.20
2019-04-21T20:43:42.587Z,18.17
2019-04-21T20:46:24.861Z,21.35
2019-04-21T20:48:40.153Z,16.70
2019-04-21T20:51:11.249Z,17.30
2019-04-21T20:53:44.406Z,16.65
2019-04-21T20:56:08.656Z,16.93
2019-04-21T20:58:40.894Z,17.20
2019-04-21T21:01:28.140Z,17.70
2019-04-21T21:03:43.225Z,18.52
2019-04-21T21:06:16.169Z,19.12
2019-04-21T21:08:45.086Z,19.02
2019-04-21T21:11:08.202Z,21.87
2019-04-21T21:13:49.217Z,16.62
2019-04-21T21:16:20.035Z,18.50
2019-04-21T21:19:08.595Z,18.57
2019-04-21T21:21:15.084Z,20.85
2019-04-21T21:23:49.784Z,22.67
2019-04-21T21:26:21.838Z,20.82
2019-04-21T21:28:42.985Z,18.02
2019-04-21T21:31:17.606Z,18.25
2019-04-21T21:33:57.488Z,19.45
2019-04-21T21:36:19.317Z,17.30
2019-04-21T21:38:55.965Z,18.48
2019-04-21T21:41:15.258Z,19.07
2019-04-21T21:43:33.138Z,20.17
2019-04-21T21:46:15.298Z,21.82
2019-04-21T21:48:47.543Z,19.10
2019-04-21T21:51:11.071Z,21.80
2019-04-21T21:53:34.731Z,18.52
2019-04-21T21:56:04.656Z,19.02
2019-04-21T21:58:38.693Z,18.57
2019-04-21T22:01:06.486Z,17.87
2019-04-21T22:03:39.082Z,18.57
2019-04-21T22:06:10.853Z,18.43
2019-04-21T22:08:34.762Z,17.37
2019-04-21T22:11:03.511Z,21.97
2019-04-21T22:13:42.185Z,19.00
2019-04-21T22:16:06.780Z,19.80
2019-04-21T22:18:58.237Z,16.23
2019-04-21T22:21:13.852Z,16.40
2019-04-21T22:23:45.596Z,19.33
2019-04-21T22:26:05.218Z,16.95
2019-04-21T22:28:33.991Z,17.03
2019-04-21T22:31:05.572Z,16.13
2019-04-21T22:33:41.846Z,17.67
2019-04-21T22:36:17.977Z,17.37
2019-04-21T22:38:50.212Z,17.97
2019-04-21T22:41:16.413Z,17.73
2019-04-21T22:43:40.500Z,17.90
2019-04-21T22:46:05.263Z,17.47
2019-04-21T22:48:34.744Z,17.70
2019-04-21T22:51:07.150Z,18.80
2019-04-21T22:53:36.009Z,18.27
2019-04-21T22:56:13.643Z,16.00
2019-04-21T22:58:39.274Z,18.00
2019-04-21T23:01:06.028Z,18.23
2019-04-21T23:03:35.733Z,17.43
2019-04-21T23:06:10.970Z,17.73
2019-04-21T23:08:40.064Z,17.60
2019-04-21T23:11:10.267Z,21.17
2019-04-21T23:13:36.345Z,18.07
2019-04-21T23:16:07.603Z,17.67
2019-04-21T23:18:46.128Z,19.07
2019-04-21T23:21:17.667Z,20.87
2019-04-21T23:23:57.714Z,16.80
2019-04-21T23:26:25.227Z,17.13
2019-04-21T23:28:56.860Z,18.70
2019-04-21T23:31:31.042Z,19.13
2019-04-21T23:33:37.433Z,20.10
2019-04-21T23:36:11.939Z,17.97
2019-04-21T23:38:43.523Z,19.07
2019-04-21T23:41:10.648Z,19.50
2019-04-21T23:43:38.504Z,18.90
2019-04-21T23:46:13.245Z,18.00
2019-04-21T23:48:56.010Z,19.30
2019-04-21T23:51:23.289Z,20.10
2019-04-21T23:53:39.355Z,18.50
2019-04-21T23:56:08.263Z,19.20
2019-04-21T23:58:38.858Z,18.63
